KDSM/DSM METAR and TAF weather

Enter ICAO airport designator
Station Type Date Time Source
KDSM METAR 2019/12/11 16:54 UTC NOAA

KDSM 111654Z 03010KT 10SM FEW016 FEW065 M07/M13 A3046 RMK AO2 SLP331 T10671128 $


Station Type Date Time Source
KDSM Decoded METAR 2019/12/11 16:54 UTC NOAA

DES MOINES INTERNATIONAL, IA, United States (KDSM) 41-32N 93-40W 295M
Dec 11, 2019 - 11:54 AM EST / 2019.12.11 1654 UTC
Wind: from the NNE (030 degrees) at 12 MPH (10 KT):0
Visibility: 10 mile(s):0
Sky conditions: mostly clear
Temperature: 19.9 F (-6.7 C)
Windchill: 6 F (-14 C):1
Dew Point: 9.0 F (-12.8 C)
Relative Humidity: 61%
Pressure (altimeter): 30.46 in. Hg (1031 hPa)
ob: KDSM 111654Z 03010KT 10SM FEW016 FEW065 M07/M13 A3046 RMK AO2 SLP331 T10671128
cycle: 17

Station Type Date Time Source
KDSM TAF 2019/12/11 18:33 UTC NOAA

TAF KDSM 111730Z 1118/1218 03011KT P6SM FEW016
FM120200 13006KT P6SM SCT250
FM120500 13008KT P6SM BKN250 WS020/17035KT
FM121100 18009G17KT P6SM OVC070 WS020/21040KT
FM121400 21011G25KT P6SM OVC030

Example: see airport list